Time;durP1;ratioP1;P1;durP2;ratioP2;P2;SDS_P1;SDS_P2;PMS_P1;PMS_P2;Temp;Humidity;BMP_temperature;BMP_pressure;BME280_temperature;BME280_humidity;BME280_pressure;Samples;Min_cycle;Max_cycle;Signal;HPM_P1;HPM_P2
2021/05/14 00:01:33;;;;;;;6.03;5.13;;;12.30;99.90;;;;;;5031418;28;20248;-58
2021/05/14 00:03:59;;;;;;;8.60;6.20;;;12.30;99.90;;;;;;5028626;28;20836;-57
2021/05/14 00:06:24;;;;;;;8.40;6.40;;;12.30;99.90;;;;;;5028825;28;20204;-57
2021/05/14 00:08:50;;;;;;;6.00;5.40;;;12.40;99.90;;;;;;5031452;28;20196;-57
2021/05/14 00:11:15;;;;;;;6.73;5.53;;;12.40;99.90;;;;;;5029671;28;20180;-57
2021/05/14 00:13:41;;;;;;;7.60;5.43;;;12.30;99.90;;;;;;5025107;28;20242;-57
2021/05/14 00:16:09;;;;;;;5.70;5.00;;;12.20;99.90;;;;;;5030574;28;20236;-57
2021/05/14 00:18:34;;;;;;;6.20;5.60;;;12.20;99.90;;;;;;5027913;28;20230;-58
2021/05/14 00:21:00;;;;;;;7.87;5.50;;;12.20;99.90;;;;;;5028717;28;20491;-57
2021/05/14 00:23:25;;;;;;;11.53;5.73;;;12.20;99.90;;;;;;5029734;28;20216;-58
2021/05/14 00:25:51;;;;;;;4.73;4.23;;;12.20;99.90;;;;;;5030608;28;20251;-58
2021/05/14 00:28:16;;;;;;;6.63;5.20;;;12.20;99.90;;;;;;5030813;28;20193;-57
2021/05/14 00:30:42;;;;;;;6.23;5.10;;;12.30;99.90;;;;;;5028451;28;20318;-57
2021/05/14 00:33:07;;;;;;;5.87;4.97;;;12.20;99.90;;;;;;5027693;28;20198;-57
2021/05/14 00:35:33;;;;;;;6.07;4.93;;;12.10;99.90;;;;;;5030379;28;20189;-57
2021/05/14 00:37:59;;;;;;;5.80;4.00;;;12.10;99.90;;;;;;5029185;28;20191;-57
2021/05/14 00:40:24;;;;;;;5.40;4.00;;;12.20;99.90;;;;;;5026999;28;20607;-58
2021/05/14 00:42:50;;;;;;;5.73;5.13;;;12.20;99.90;;;;;;5030205;28;21170;-58
2021/05/14 00:45:15;;;;;;;5.93;4.93;;;12.30;99.90;;;;;;5028912;28;20201;-57
2021/05/14 00:47:41;;;;;;;6.60;4.33;;;12.30;99.90;;;;;;5028180;28;20186;-57
2021/05/14 00:50:07;;;;;;;6.40;5.27;;;12.30;99.90;;;;;;5029036;28;20180;-56
2021/05/14 00:52:33;;;;;;;7.17;5.33;;;12.30;99.90;;;;;;5027841;28;20184;-58
2021/05/14 00:54:59;;;;;;;4.87;4.37;;;12.30;99.90;;;;;;5028539;28;20437;-56
2021/05/14 00:57:25;;;;;;;6.33;5.37;;;12.30;99.90;;;;;;5027904;28;21187;-57
2021/05/14 00:59:51;;;;;;;8.07;5.50;;;12.40;99.90;;;;;;5029338;28;20205;-57
2021/05/14 01:02:17;;;;;;;6.67;5.50;;;12.30;99.90;;;;;;5029476;28;21013;-59
2021/05/14 01:04:44;;;;;;;6.70;4.73;;;12.30;99.90;;;;;;5030163;28;21079;-58
2021/05/14 01:07:11;;;;;;;6.33;5.07;;;12.30;99.90;;;;;;5029747;28;20418;-58
2021/05/14 01:09:39;;;;;;;4.07;3.77;;;12.30;99.90;;;;;;5030158;28;20443;-58
2021/05/14 01:12:06;;;;;;;5.20;4.70;;;12.40;99.90;;;;;;5005769;28;20845;-58
2021/05/14 01:14:32;;;;;;;6.10;4.53;;;12.30;99.90;;;;;;5029615;28;20942;-57
2021/05/14 01:16:57;;;;;;;5.83;5.20;;;12.40;99.90;;;;;;5026967;28;20441;-58
2021/05/14 01:19:23;;;;;;;7.17;5.67;;;10.70;99.90;;;;;;5028004;28;20192;-57
2021/05/14 01:21:48;;;;;;;6.80;5.47;;;12.40;99.90;;;;;;5028803;28;20205;-58
2021/05/14 01:24:14;;;;;;;5.47;4.33;;;11.80;99.90;;;;;;5028752;28;20201;-57
2021/05/14 01:26:40;;;;;;;6.17;4.73;;;12.30;99.90;;;;;;5030175;28;20174;-57
2021/05/14 01:29:10;;;;;;;7.57;5.20;;;12.30;99.90;;;;;;5028717;28;20180;-57
2021/05/14 01:31:36;;;;;;;5.90;4.67;;;12.30;99.90;;;;;;5029165;28;20638;-56
2021/05/14 01:34:03;;;;;;;5.10;4.40;;;12.30;99.90;;;;;;5028864;28;20517;-56
2021/05/14 01:36:30;;;;;;;5.73;4.17;;;12.30;99.90;;;;;;5025379;28;20198;-58
2021/05/14 01:38:55;;;;;;;6.20;4.23;;;12.40;99.90;;;;;;5028751;28;20510;-58
2021/05/14 01:41:21;;;;;;;4.77;4.27;;;12.30;99.90;;;;;;5027234;28;20457;-57
2021/05/14 01:43:47;;;;;;;6.40;4.50;;;12.30;99.90;;;;;;5029495;28;20194;-58
2021/05/14 01:46:12;;;;;;;5.00;4.53;;;12.30;99.90;;;;;;5022938;28;20245;-58
2021/05/14 01:48:38;;;;;;;6.80;4.97;;;12.30;99.90;;;;;;5027082;28;20350;-57
2021/05/14 01:51:16;;;;;;;5.57;4.57;;;12.30;99.90;;;;;;5029691;28;20567;-57
2021/05/14 01:53:42;;;;;;;4.83;3.60;;;14.30;99.90;;;;;;5026343;28;20184;-57
2021/05/14 01:56:07;;;;;;;4.27;3.87;;;12.30;99.90;;;;;;5028983;28;20932;-57
2021/05/14 01:58:33;;;;;;;4.87;4.00;;;12.20;99.90;;;;;;5028300;28;20292;-57
2021/05/14 02:00:59;;;;;;;5.57;4.43;;;12.30;99.90;;;;;;5026756;28;20184;-57
2021/05/14 02:03:24;;;;;;;4.87;4.20;;;12.30;99.90;;;;;;5029921;28;20218;-57
2021/05/14 02:05:50;;;;;;;5.07;4.60;;;12.40;99.90;;;;;;5029161;28;20200;-58
2021/05/14 02:08:16;;;;;;;4.60;4.10;;;12.50;99.90;;;;;;5029177;28;20186;-57
2021/05/14 02:10:41;;;;;;;5.07;4.33;;;12.30;99.90;;;;;;5025368;28;20644;-57
2021/05/14 02:13:07;;;;;;;5.83;5.00;;;12.30;99.90;;;;;;5026265;28;20189;-57
2021/05/14 02:15:32;;;;;;;4.60;3.80;;;12.30;99.90;;;;;;5029223;28;20222;-58
2021/05/14 02:17:59;;;;;;;5.10;4.60;;;12.40;99.90;;;;;;5028033;28;20185;-58
2021/05/14 02:20:25;;;;;;;5.03;4.53;;;12.30;99.90;;;;;;5029406;28;20185;-57
2021/05/14 02:22:50;;;;;;;5.00;4.50;;;12.00;99.90;;;;;;5025868;28;20507;-58
2021/05/14 02:25:16;;;;;;;6.53;4.53;;;12.30;99.90;;;;;;5029433;28;20236;-57
2021/05/14 02:27:41;;;;;;;5.23;4.67;;;12.30;99.90;;;;;;5028183;28;20221;-58
2021/05/14 02:30:08;;;;;;;5.37;4.87;;;12.30;99.90;;;;;;5027988;28;20193;-56
2021/05/14 02:32:33;;;;;;;5.47;4.60;;;12.40;99.90;;;;;;5026700;28;20195;-57
2021/05/14 02:35:00;;;;;;;6.63;4.93;;;12.30;99.90;;;;;;5029007;28;20448;-58
2021/05/14 02:37:25;;;;;;;6.73;5.30;;;12.30;99.90;;;;;;5029380;28;20712;-58
2021/05/14 02:39:51;;;;;;;6.13;4.20;;;12.30;99.90;;;;;;5028896;28;20469;-57
2021/05/14 02:42:17;;;;;;;4.77;4.37;;;12.20;99.90;;;;;;5024219;28;20199;-58
2021/05/14 02:44:42;;;;;;;5.27;4.60;;;12.20;99.90;;;;;;5026600;28;20256;-56
2021/05/14 02:47:08;;;;;;;4.57;4.07;;;12.30;99.90;;;;;;5030462;28;20177;-58
2021/05/14 02:49:35;;;;;;;5.67;3.93;;;12.30;99.90;;;;;;5031001;28;20265;-58
2021/05/14 02:52:01;;;;;;;11.43;5.30;;;12.40;99.90;;;;;;5030122;28;20445;-57
2021/05/14 02:54:26;;;;;;;5.93;5.33;;;12.40;99.90;;;;;;5030949;28;20447;-58
2021/05/14 02:56:52;;;;;;;5.00;4.43;;;12.30;99.90;;;;;;5031969;28;20446;-57
2021/05/14 02:59:20;;;;;;;5.90;4.90;;;12.30;99.90;;;;;;5031655;28;20211;-58
2021/05/14 03:01:46;;;;;;;6.00;4.67;;;12.40;99.90;;;;;;5030922;28;20496;-57
2021/05/14 03:04:11;;;;;;;6.23;4.97;;;12.30;99.90;;;;;;5028494;28;20455;-57
2021/05/14 03:06:37;;;;;;;5.80;5.30;;;12.40;99.90;;;;;;5032620;28;20206;-58
2021/05/14 03:09:03;;;;;;;7.57;5.40;;;12.50;99.90;;;;;;5032449;28;20198;-58
2021/05/14 03:11:28;;;;;;;5.70;5.00;;;12.50;99.90;;;;;;5030752;28;20192;-56
2021/05/14 03:13:54;;;;;;;6.37;5.70;;;12.50;99.90;;;;;;5029051;28;20504;-57
2021/05/14 03:16:21;;;;;;;6.80;4.87;;;12.40;99.90;;;;;;5031407;28;20322;-57
2021/05/14 03:18:47;;;;;;;5.90;5.27;;;12.40;99.90;;;;;;5032451;28;20631;-56
2021/05/14 03:21:12;;;;;;;7.17;5.63;;;12.30;99.90;;;;;;5032364;28;20477;-57
2021/05/14 03:23:39;;;;;;;6.70;6.00;;;12.20;99.90;;;;;;5030576;28;20193;-57
2021/05/14 03:26:05;;;;;;;7.13;5.73;;;12.20;99.90;;;;;;5030911;28;20211;-59
2021/05/14 03:28:30;;;;;;;7.67;6.47;;;12.20;99.90;;;;;;5031166;28;20498;-57
2021/05/14 03:30:56;;;;;;;7.67;5.93;;;12.10;99.90;;;;;;5030984;28;20430;-57
2021/05/14 03:33:21;;;;;;;8.27;6.57;;;12.20;99.90;;;;;;5031822;28;20193;-57
2021/05/14 03:35:51;;;;;;;6.80;5.87;;;12.20;99.90;;;;;;5026365;28;20630;-57
2021/05/14 03:38:17;;;;;;;8.20;7.20;;;12.30;99.90;;;;;;5031875;28;20191;-57
2021/05/14 03:40:43;;;;;;;8.57;5.83;;;12.30;99.90;;;;;;5032164;28;20418;-59
2021/05/14 03:43:09;;;;;;;9.50;6.80;;;12.20;99.90;;;;;;5029807;28;20514;-58
2021/05/14 03:45:35;;;;;;;7.60;6.40;;;12.10;99.90;;;;;;5026736;28;20923;-58
2021/05/14 03:48:01;;;;;;;8.20;6.50;;;12.10;99.90;;;;;;5032257;28;20299;-57
2021/05/14 03:50:31;;;;;;;10.80;6.57;;;12.10;99.90;;;;;;5031708;28;20495;-57
2021/05/14 03:52:56;;;;;;;7.80;6.30;;;12.20;99.90;;;;;;5031506;28;20436;-57
2021/05/14 03:55:22;;;;;;;9.73;5.50;;;12.30;99.90;;;;;;5026576;28;20514;-57
2021/05/14 03:57:48;;;;;;;8.77;7.50;;;12.30;99.90;;;;;;5030003;28;20192;-57
2021/05/14 04:00:14;;;;;;;8.60;6.60;;;12.40;99.90;;;;;;5030090;28;20193;-57
2021/05/14 04:02:40;;;;;;;9.17;7.70;;;12.30;99.90;;;;;;5029507;28;20197;-59
2021/05/14 04:05:06;;;;;;;8.70;7.80;;;12.30;99.90;;;;;;5028949;28;20473;-59
2021/05/14 04:07:32;;;;;;;9.73;6.93;;;12.40;99.90;;;;;;5031171;28;20774;-58
2021/05/14 04:10:49;;;;;;;8.43;7.47;;;12.50;99.90;;;;;;5031115;28;20437;-60
2021/05/14 04:15:31;;;;;;;8.43;7.53;;;12.60;99.90;;;;;;5028869;28;20999;-59
2021/05/14 04:17:57;;;;;;;10.20;8.00;;;12.70;99.90;;;;;;5031288;28;20426;-60
2021/05/14 04:20:22;;;;;;;8.53;7.40;;;12.60;99.90;;;;;;5031079;28;20187;-58
2021/05/14 04:22:50;;;;;;;8.40;7.60;;;12.60;99.90;;;;;;5030705;28;20285;-57
2021/05/14 04:25:16;;;;;;;8.60;7.37;;;12.70;99.90;;;;;;5031358;28;20299;-59
2021/05/14 04:27:41;;;;;;;11.23;8.10;;;12.60;99.90;;;;;;5031199;28;20995;-59
2021/05/14 04:30:07;;;;;;;10.67;7.23;;;12.70;99.90;;;;;;5029774;28;20182;-59
2021/05/14 04:32:33;;;;;;;10.13;7.60;;;12.70;99.90;;;;;;5030327;28;20188;-60
2021/05/14 04:34:58;;;;;;;8.77;7.10;;;12.70;99.90;;;;;;5029072;28;21101;-59
2021/05/14 04:37:24;;;;;;;9.50;8.23;;;12.80;99.90;;;;;;5031256;28;20239;-59
2021/05/14 04:39:50;;;;;;;8.53;7.63;;;12.80;99.90;;;;;;5030550;28;20190;-60
2021/05/14 04:42:15;;;;;;;12.07;7.50;;;12.80;99.90;;;;;;5030451;28;20189;-60
2021/05/14 04:44:41;;;;;;;9.70;7.80;;;12.90;99.90;;;;;;5030445;28;20201;-61
2021/05/14 04:47:06;;;;;;;11.13;7.13;;;13.00;99.90;;;;;;5030074;28;20209;-59
2021/05/14 04:49:32;;;;;;;9.60;8.43;;;13.10;99.90;;;;;;5031028;28;20178;-60
2021/05/14 04:51:58;;;;;;;10.60;8.37;;;14.20;99.90;;;;;;5030597;28;20189;-62
2021/05/14 04:54:24;;;;;;;10.57;8.30;;;12.90;99.90;;;;;;5029795;28;20173;-62
2021/05/14 04:56:49;;;;;;;9.40;7.80;;;12.90;99.90;;;;;;5029485;28;20183;-60
2021/05/14 04:59:15;;;;;;;9.57;8.57;;;13.00;99.90;;;;;;5029637;28;20704;-60
2021/05/14 05:01:41;;;;;;;9.03;7.80;;;13.00;99.90;;;;;;5029732;28;20189;-61
2021/05/14 05:04:06;;;;;;;8.37;7.47;;;12.90;99.90;;;;;;5029915;28;20511;-60
2021/05/14 05:06:33;;;;;;;11.30;8.23;;;12.90;99.90;;;;;;5030914;28;20474;-60
2021/05/14 05:08:59;;;;;;;12.00;7.80;;;12.90;99.90;;;;;;5028290;28;20190;-60
2021/05/14 05:11:25;;;;;;;9.40;7.37;;;13.00;99.90;;;;;;5029425;28;20530;-60
2021/05/14 05:13:51;;;;;;;12.13;8.60;;;12.90;99.90;;;;;;5030105;28;20494;-61
2021/05/14 05:16:16;;;;;;;11.50;8.00;;;13.10;99.90;;;;;;5027293;28;20533;-59
2021/05/14 05:18:42;;;;;;;9.33;7.87;;;13.10;99.90;;;;;;5028922;28;20193;-58
2021/05/14 05:21:07;;;;;;;10.40;8.40;;;13.20;99.90;;;;;;5028716;28;20577;-61
2021/05/14 05:23:33;;;;;;;10.33;8.20;;;13.10;99.90;;;;;;5030031;28;20189;-60
2021/05/14 05:25:58;;;;;;;8.73;7.40;;;13.20;99.90;;;;;;5028823;28;20356;-60
2021/05/14 05:28:30;;;;;;;8.50;7.40;;;13.30;99.90;;;;;;5030192;28;20185;-59
2021/05/14 05:30:57;;;;;;;10.20;8.20;;;13.40;99.90;;;;;;5027521;28;20189;-59
2021/05/14 05:33:22;;;;;;;11.60;7.80;;;13.50;99.90;;;;;;5030470;28;20990;-59
2021/05/14 05:35:48;;;;;;;10.97;8.30;;;13.40;99.90;;;;;;5030797;28;20441;-60
2021/05/14 05:38:26;;;;;;;10.47;9.07;;;13.50;99.90;;;;;;5030897;28;20208;-60
2021/05/14 05:40:52;;;;;;;9.53;8.63;;;13.50;99.90;;;;;;5030232;28;20183;-60
2021/05/14 05:43:18;;;;;;;12.17;8.90;;;13.70;99.90;;;;;;5029431;28;20431;-60
2021/05/14 05:45:44;;;;;;;11.30;9.00;;;13.70;99.90;;;;;;5030133;28;20447;-60
2021/05/14 05:48:10;;;;;;;10.10;9.07;;;13.80;99.90;;;;;;5030155;28;20438;-59
2021/05/14 05:50:40;;;;;;;12.10;10.33;;;13.90;99.90;;;;;;5028922;28;21001;-59
2021/05/14 05:53:07;;;;;;;11.40;9.60;;;14.00;99.90;;;;;;5030100;28;20538;-59
2021/05/14 05:55:33;;;;;;;11.50;8.53;;;14.20;99.90;;;;;;5028674;28;20454;-59
2021/05/14 05:58:11;;;;;;;10.03;8.80;;;14.20;99.90;;;;;;5030377;28;20816;-59
2021/05/14 06:00:36;;;;;;;12.20;8.90;;;14.20;99.90;;;;;;5029870;28;20473;-59
2021/05/14 06:03:03;;;;;;;12.73;8.63;;;14.30;99.90;;;;;;5029825;28;20429;-59
2021/05/14 06:05:29;;;;;;;11.93;9.37;;;14.40;99.90;;;;;;5027532;28;20303;-60
2021/05/14 06:07:55;;;;;;;14.80;10.10;;;14.40;99.90;;;;;;5030273;28;20895;-59
2021/05/14 06:10:21;;;;;;;12.13;10.33;;;14.40;99.90;;;;;;5029791;28;20508;-60
2021/05/14 06:12:46;;;;;;;11.20;9.33;;;14.50;99.90;;;;;;5029844;28;20551;-59
2021/05/14 06:15:12;;;;;;;14.23;11.20;;;14.60;99.90;;;;;;5029228;28;20234;-59
2021/05/14 06:17:42;;;;;;;11.13;9.60;;;14.60;99.90;;;;;;5029771;28;20226;-59
2021/05/14 06:20:12;;;;;;;12.10;9.77;;;14.70;99.90;;;;;;5029089;28;20192;-59
2021/05/14 06:22:37;;;;;;;12.13;9.20;;;14.70;99.90;;;;;;5029469;28;20562;-60
2021/05/14 06:25:05;;;;;;;11.40;8.90;;;14.70;99.90;;;;;;5033158;28;20613;-59
2021/05/14 06:27:31;;;;;;;10.83;9.73;;;14.70;99.90;;;;;;5033180;28;20411;-59
2021/05/14 06:29:56;;;;;;;10.70;9.60;;;16.50;99.90;;;;;;5033955;28;20793;-59
2021/05/14 06:32:22;;;;;;;12.33;8.83;;;14.70;99.90;;;;;;5033592;28;20942;-59
2021/05/14 06:34:47;;;;;;;11.27;9.43;;;14.70;99.90;;;;;;5033627;28;20188;-59
2021/05/14 06:37:13;;;;;;;10.47;9.40;;;14.70;99.90;;;;;;5031794;28;20184;-59
2021/05/14 06:39:39;;;;;;;15.57;9.63;;;14.70;99.90;;;;;;5032181;28;20213;-60
2021/05/14 06:42:04;;;;;;;11.70;10.40;;;14.70;99.90;;;;;;5032173;28;20549;-60
2021/05/14 06:44:30;;;;;;;12.30;9.73;;;14.70;99.90;;;;;;5033264;28;20184;-59
2021/05/14 06:46:56;;;;;;;11.10;10.10;;;14.90;99.90;;;;;;5033330;28;20198;-60
2021/05/14 06:49:22;;;;;;;11.40;10.30;;;14.90;99.90;;;;;;5032743;28;20274;-59
2021/05/14 06:51:48;;;;;;;11.63;10.53;;;14.90;99.90;;;;;;5032501;28;20177;-60
2021/05/14 06:54:14;;;;;;;11.77;10.53;;;15.00;99.90;;;;;;5031875;28;20432;-59
2021/05/14 06:56:40;;;;;;;11.67;10.47;;;14.90;99.90;;;;;;5032890;28;20836;-59
2021/05/14 06:59:06;;;;;;;13.30;11.07;;;;;;;;;;5030874;28;21056;-60
2021/05/14 07:01:31;;;;;;;14.27;10.87;;;14.90;99.90;;;;;;5033364;28;20525;-60
2021/05/14 07:03:57;;;;;;;13.10;11.40;;;14.90;99.90;;;;;;5031844;28;20445;-60
2021/05/14 07:06:22;;;;;;;11.00;9.63;;;15.10;99.90;;;;;;5032160;28;20302;-60
2021/05/14 07:08:49;;;;;;;12.17;10.93;;;15.20;99.90;;;;;;5033218;28;20196;-59
2021/05/14 07:11:15;;;;;;;12.87;11.50;;;15.20;99.90;;;;;;5032952;28;20184;-60
2021/05/14 07:13:41;;;;;;;13.17;11.70;;;15.00;99.90;;;;;;5032347;28;20564;-60
2021/05/14 07:16:06;;;;;;;14.33;12.40;;;15.10;99.90;;;;;;5032486;28;20315;-59
2021/05/14 07:18:32;;;;;;;12.50;11.20;;;15.10;99.90;;;;;;5032822;28;20550;-59
2021/05/14 07:20:58;;;;;;;11.67;10.57;;;15.10;99.90;;;;;;5032152;28;20594;-62
2021/05/14 07:23:24;;;;;;;12.77;11.47;;;15.00;99.90;;;;;;5032763;28;20526;-59
2021/05/14 07:25:50;;;;;;;15.70;13.70;;;15.20;99.90;;;;;;5032793;28;20492;-59
2021/05/14 07:28:16;;;;;;;13.60;12.20;;;15.10;99.90;;;;;;5032597;28;20189;-59
2021/05/14 07:30:42;;;;;;;13.40;12.00;;;15.00;99.90;;;;;;5033033;28;20474;-59
2021/05/14 07:33:07;;;;;;;14.53;13.23;;;15.10;99.90;;;;;;5031143;28;20783;-59
2021/05/14 07:35:33;;;;;;;12.50;11.40;;;14.90;99.90;;;;;;5031696;28;20432;-60
2021/05/14 07:37:58;;;;;;;13.77;12.43;;;14.90;99.90;;;;;;5031835;28;20179;-60
2021/05/14 07:40:24;;;;;;;15.60;14.00;;;15.10;99.90;;;;;;5032534;28;20202;-60
2021/05/14 07:42:50;;;;;;;15.87;14.00;;;15.10;99.90;;;;;;5031305;28;20192;-59
2021/05/14 07:45:15;;;;;;;16.40;14.50;;;15.20;99.90;;;;;;5031677;28;20208;-58
2021/05/14 07:47:41;;;;;;;14.10;12.80;;;15.40;99.90;;;;;;5032460;28;20191;-59
2021/05/14 07:50:07;;;;;;;15.07;13.57;;;15.40;99.90;;;;;;5031933;28;20187;-59
2021/05/14 07:52:33;;;;;;;15.77;14.17;;;15.60;99.90;;;;;;5032062;28;21486;-59
2021/05/14 07:55:00;;;;;;;13.23;11.83;;;15.80;99.90;;;;;;5031796;28;20439;-60
2021/05/14 07:57:25;;;;;;;13.60;12.10;;;15.80;63.30;;;;;;5029585;28;20216;-59
2021/05/14 07:59:51;;;;;;;15.30;13.43;;;15.80;17.50;;;;;;5031751;28;20492;-60
2021/05/14 08:02:17;;;;;;;11.13;9.97;;;15.80;34.90;;;;;;5031335;28;20421;-60
2021/05/14 08:04:43;;;;;;;8.57;7.80;;;15.90;13.20;;;;;;5031848;28;20210;-59
2021/05/14 08:07:09;;;;;;;8.77;7.50;;;15.70;1.00;;;;;;5029883;28;20179;-60
2021/05/14 08:09:34;;;;;;;9.20;6.20;;;15.60;1.00;;;;;;5031562;28;20458;-59
2021/05/14 08:12:04;;;;;;;5.70;5.10;;;15.50;1.00;;;;;;5031454;28;20247;-59
2021/05/14 08:14:29;;;;;;;5.90;5.40;;;15.40;1.00;;;;;;5031519;28;20208;-59
2021/05/14 08:16:56;;;;;;;7.10;5.77;;;15.20;1.00;;;;;;5031397;28;20745;-60
2021/05/14 08:19:22;;;;;;;4.97;4.57;;;15.20;1.00;;;;;;5031206;28;20337;-59
2021/05/14 08:21:47;;;;;;;8.20;5.90;;;15.30;1.00;;;;;;5029235;28;21056;-59
2021/05/14 08:24:14;;;;;;;5.77;4.77;;;15.20;1.00;;;;;;5031303;28;20173;-60
2021/05/14 08:26:40;;;;;;;6.50;5.90;;;15.50;1.00;;;;;;5031057;28;20291;-60
2021/05/14 08:29:06;;;;;;;7.03;6.30;;;15.30;1.00;;;;;;5030408;28;20510;-60
2021/05/14 08:31:34;;;;;;;7.27;6.63;;;15.30;1.00;;;;;;5030844;28;20415;-59
2021/05/14 08:34:00;;;;;;;7.50;6.80;;;15.50;1.00;;;;;;5031011;28;20439;-60
2021/05/14 08:36:25;;;;;;;7.97;7.27;;;15.50;1.00;;;;;;5030642;28;20441;-59
2021/05/14 08:38:51;;;;;;;10.07;7.77;;;15.60;1.00;;;;;;5030844;28;20272;-60
2021/05/14 08:41:18;;;;;;;9.03;6.53;;;15.70;1.00;;;;;;5029534;28;20190;-59
2021/05/14 08:43:44;;;;;;;8.43;7.63;;;15.60;1.00;;;;;;5031123;28;20641;-59
2021/05/14 08:46:14;;;;;;;8.07;7.20;;;15.20;1.00;;;;;;5029404;28;20441;-60
2021/05/14 08:48:41;;;;;;;9.57;7.37;;;15.00;1.00;;;;;;5027726;28;20188;-59
2021/05/14 08:51:09;;;;;;;8.20;7.13;;;15.10;1.00;;;;;;5030619;28;20500;-60
2021/05/14 08:53:35;;;;;;;9.23;7.87;;;15.20;1.00;;;;;;5030798;28;20444;-60
2021/05/14 08:56:01;;;;;;;8.07;7.33;;;15.30;1.00;;;;;;5030911;28;20949;-60
2021/05/14 08:58:27;;;;;;;7.47;6.77;;;15.50;1.00;;;;;;5029377;28;20439;-60
2021/05/14 09:00:53;;;;;;;7.40;6.70;;;15.80;1.00;;;;;;5031319;28;20334;-60
2021/05/14 09:03:19;;;;;;;8.67;7.30;;;16.20;1.00;;;;;;5030705;28;20912;-61
2021/05/14 09:05:47;;;;;;;7.20;6.50;;;16.50;1.00;;;;;;5030530;28;20492;-61
2021/05/14 09:08:12;;;;;;;6.07;5.57;;;16.60;1.00;;;;;;5030786;28;20436;-59
2021/05/14 09:10:38;;;;;;;7.30;6.70;;;16.50;1.00;;;;;;5030301;28;20792;-59
2021/05/14 09:13:11;;;;;;;6.83;6.03;;;16.70;1.00;;;;;;5030676;28;20296;-59
2021/05/14 09:15:38;;;;;;;7.40;6.70;;;16.90;1.00;;;;;;5028729;28;20239;-60
2021/05/14 09:18:04;;;;;;;7.20;6.47;;;16.90;1.00;;;;;;5027248;28;20430;-60
2021/05/14 09:20:53;;;;;;;7.87;6.20;;;16.80;1.00;;;;;;5029946;28;20456;-59
2021/05/14 09:23:21;;;;;;;6.27;5.67;;;17.00;1.00;;;;;;5030162;28;20439;-60
2021/05/14 09:25:50;;;;;;;6.97;6.37;;;17.30;1.00;;;;;;5030550;28;20430;-60
2021/05/14 09:28:28;;;;;;;6.90;6.30;;;17.50;1.00;;;;;;5030384;28;20460;-59
2021/05/14 09:31:14;;;;;;;7.37;6.77;;;17.90;1.00;;;;;;5030204;28;20493;-60
2021/05/14 09:33:55;;;;;;;7.70;7.00;;;18.10;1.00;;;;;;5030343;28;20435;-60
2021/05/14 09:36:34;;;;;;;5.97;5.47;;;18.00;1.00;;;;;;5028349;28;20414;-61
2021/05/14 09:39:01;;;;;;;5.50;5.10;;;17.80;1.00;;;;;;5029098;28;20439;-61
2021/05/14 09:41:34;;;;;;;5.47;5.07;;;19.70;1.00;;;;;;5029265;28;20861;-60
2021/05/14 09:44:01;;;;;;;4.20;3.90;;;17.50;1.00;;;;;;5030679;28;20966;-60
2021/05/14 09:46:28;;;;;;;4.17;3.70;;;18.00;1.00;;;;;;5029866;28;20463;-62
2021/05/14 09:48:59;;;;;;;3.90;3.60;;;18.30;1.00;;;;;;5030210;28;20488;-61
2021/05/14 09:51:25;;;;;;;4.03;3.13;;;18.20;1.00;;;;;;5030029;28;20417;-60
2021/05/14 09:53:51;;;;;;;3.70;3.40;;;17.90;1.00;;;;;;5030035;28;20504;-60
2021/05/14 09:56:27;;;;;;;3.80;3.50;;;18.60;1.00;;;;;;5029925;28;20812;-60
2021/05/14 09:58:58;;;;;;;4.27;3.00;;;19.00;1.00;;;;;;5026906;28;20241;-62
2021/05/14 10:01:25;;;;;;;2.87;2.63;;;19.00;1.00;;;;;;5027132;28;20968;-60
2021/05/14 10:03:51;;;;;;;3.97;2.70;;;19.00;1.00;;;;;;5029149;28;20426;-59
2021/05/14 10:06:18;;;;;;;3.70;3.00;;;18.80;1.00;;;;;;5028490;28;20557;-61
2021/05/14 10:08:50;;;;;;;3.37;3.00;;;18.90;1.00;;;;;;5029700;28;20456;-61
2021/05/14 10:11:21;;;;;;;2.40;2.20;;;19.00;1.00;;;;;;5029883;28;20406;-60
2021/05/14 10:13:48;;;;;;;2.80;2.30;;;19.30;1.00;;;;;;5029790;28;20450;-61
2021/05/14 10:16:13;;;;;;;2.27;2.03;;;19.90;1.00;;;;;;5029715;28;20452;-61
2021/05/14 10:18:43;;;;;;;2.57;2.00;;;19.80;1.00;;;;;;5029700;28;20538;-61
2021/05/14 10:21:11;;;;;;;2.87;1.80;;;19.50;1.00;;;;;;5029453;28;20573;-60
2021/05/14 10:23:37;;;;;;;1.80;1.70;;;19.40;1.00;;;;;;5029126;28;20764;-61
2021/05/14 10:26:08;;;;;;;1.80;1.70;;;19.40;1.00;;;;;;5029758;28;20948;-60
2021/05/14 10:28:51;;;;;;;3.20;1.40;;;19.40;1.00;;;;;;5028401;28;20547;-61
2021/05/14 10:31:19;;;;;;;3.10;1.90;;;18.90;1.00;;;;;;5029451;28;20479;-60
2021/05/14 10:33:49;;;;;;;2.03;1.83;;;18.90;1.00;;;;;;5029104;28;20422;-64
2021/05/14 10:36:15;;;;;;;1.57;1.47;;;18.70;1.00;;;;;;5028064;28;20471;-59
2021/05/14 10:38:41;;;;;;;2.80;1.80;;;18.70;1.00;;;;;;5029153;28;20525;-61
2021/05/14 10:41:26;;;;;;;2.77;1.77;;;19.20;1.00;;;;;;5029738;28;20195;-62
2021/05/14 10:44:07;;;;;;;2.57;1.90;;;18.60;1.00;;;;;;5029330;28;20442;-61
2021/05/14 10:46:34;;;;;;;4.00;1.83;;;18.70;1.00;;;;;;5026482;28;20430;-61
2021/05/14 10:49:08;;;;;;;2.40;1.90;;;18.70;1.00;;;;;;5029074;28;20410;-61
2021/05/14 10:51:46;;;;;;;2.60;2.17;;;18.90;1.00;;;;;;5029693;28;20682;-59
2021/05/14 10:54:39;;;;;;;2.50;2.30;;;19.20;1.00;;;;;;5029512;28;20427;-61
2021/05/14 10:57:40;;;;;;;2.40;2.20;;;18.90;1.00;;;;;;5027731;28;20456;-61
2021/05/14 11:00:29;;;;;;;2.20;1.80;;;19.00;1.00;;;;;;5027392;28;20478;-61
2021/05/14 11:03:14;;;;;;;3.40;2.60;;;19.20;1.00;;;;;;5029271;28;20455;-60
2021/05/14 11:05:41;;;;;;;3.00;2.40;;;18.90;1.00;;;;;;5027881;28;20478;-61
2021/05/14 11:08:11;;;;;;;2.90;2.33;;;18.80;1.00;;;;;;5030478;28;20439;-61
2021/05/14 11:10:39;;;;;;;3.60;3.30;;;18.70;1.00;;;;;;5032462;28;20525;-60
2021/05/14 11:13:45;;;;;;;5.13;3.10;;;18.80;1.00;;;;;;5032500;28;20441;-59
2021/05/14 11:16:42;;;;;;;3.63;3.30;;;18.80;1.00;;;;;;5032550;28;20508;-61
2021/05/14 11:19:26;;;;;;;3.03;2.73;;;19.30;1.00;;;;;;5030518;28;20402;-63
2021/05/14 11:22:10;;;;;;;3.40;3.10;;;19.40;1.00;;;;;;5032785;28;20443;-62
2021/05/14 11:24:39;;;;;;;5.70;2.87;;;19.50;1.00;;;;;;5032571;28;20413;-64
2021/05/14 11:27:30;;;;;;;3.33;3.03;;;19.90;1.00;;;;;;5032043;28;20916;-62
2021/05/14 11:30:15;;;;;;;3.33;3.03;;;20.40;1.00;;;;;;5025055;28;20436;-62
2021/05/14 11:32:45;;;;;;;5.67;3.33;;;20.40;1.00;;;;;;5031416;28;20418;-62
2021/05/14 11:49:22;;;;;;;4.00;3.20;;;23.40;1.00;;;;;;5071051;27;20918;-58
2021/05/14 11:51:47;;;;;;;3.63;3.30;;;19.90;1.00;;;;;;5066801;28;20423;-58
2021/05/14 11:54:14;;;;;;;6.13;3.10;;;20.00;1.00;;;;;;5069324;28;20609;-57
2021/05/14 11:56:41;;;;;;;5.57;3.90;;;19.90;1.00;;;;;;5080248;28;20258;-59
2021/05/14 11:59:21;;;;;;;5.10;4.60;;;19.90;1.00;;;;;;5066777;28;20466;-57
2021/05/14 12:01:47;;;;;;;5.63;5.13;;;20.00;1.00;;;;;;5066763;28;20582;-58
2021/05/14 12:04:12;;;;;;;5.80;5.30;;;20.20;1.00;;;;;;5066648;28;20880;-58
2021/05/14 12:06:50;;;;;;;6.37;4.77;;;20.40;1.00;;;;;;5084793;28;20254;-56
2021/05/14 12:09:17;;;;;;;5.37;4.90;;;20.90;1.00;;;;;;5075458;28;20245;-57
2021/05/14 12:11:44;;;;;;;6.20;5.70;;;21.00;1.00;;;;;;5072276;28;20412;-58
2021/05/14 12:14:12;;;;;;;6.20;5.70;;;21.00;1.00;;;;;;5084393;28;20498;-58
2021/05/14 12:16:38;;;;;;;6.93;6.23;;;20.90;1.00;;;;;;5072747;28;20942;-59
2021/05/14 12:19:04;;;;;;;7.40;6.80;;;20.90;1.00;;;;;;5066458;28;20434;-58
2021/05/14 12:21:34;;;;;;;7.83;6.57;;;20.90;1.00;;;;;;5067748;28;20438;-56
2021/05/14 12:24:12;;;;;;;7.20;6.60;;;20.80;1.00;;;;;;5073479;28;20517;-59
2021/05/14 12:26:38;;;;;;;7.00;6.40;;;20.90;1.00;;;;;;5071609;28;20416;-57
2021/05/14 12:29:20;;;;;;;7.90;6.10;;;20.70;1.00;;;;;;5077038;28;20408;-58
2021/05/14 12:31:54;;;;;;;5.07;4.67;;;20.70;1.00;;;;;;5065949;28;20191;-57
2021/05/14 12:34:22;;;;;;;5.87;5.27;;;20.40;1.00;;;;;;5065892;28;20542;-59
2021/05/14 12:36:55;;;;;;;5.30;4.80;;;20.30;1.00;;;;;;5068032;28;20517;-57
2021/05/14 12:39:23;;;;;;;5.03;4.73;;;20.20;1.00;;;;;;5065722;28;20444;-57
2021/05/14 12:41:49;;;;;;;5.57;4.90;;;20.10;1.00;;;;;;5077840;28;20794;-58
2021/05/14 12:44:21;;;;;;;5.67;5.27;;;20.30;1.00;;;;;;5084576;28;20424;-58
2021/05/14 12:47:23;;;;;;;6.07;5.57;;;20.10;1.00;;;;;;5076330;28;20520;-59
2021/05/14 12:49:57;;;;;;;5.70;5.20;;;20.20;1.00;;;;;;5049250;28;20451;-58
2021/05/14 12:52:37;;;;;;;6.67;5.17;;;20.30;1.00;;;;;;5052374;28;20397;-58
2021/05/14 12:55:14;;;;;;;4.87;4.40;;;20.70;1.00;;;;;;5052531;28;20571;-57
2021/05/14 12:57:40;;;;;;;4.80;4.43;;;20.70;1.00;;;;;;5052264;28;20508;-56
2021/05/14 13:00:09;;;;;;;5.50;5.03;;;20.20;1.00;;;;;;5052399;28;20762;-56
2021/05/14 13:02:37;;;;;;;5.23;4.73;;;19.90;1.00;;;;;;5052075;28;20930;-56
2021/05/14 13:05:11;;;;;;;5.90;5.50;;;19.80;1.00;;;;;;5055936;28;20537;-57
2021/05/14 13:07:37;;;;;;;5.50;5.10;;;19.80;1.00;;;;;;5068229;28;20829;-58
2021/05/14 13:10:05;;;;;;;4.70;4.30;;;19.50;1.00;;;;;;5063712;28;20885;-55